Time;durP1;ratioP1;P1;durP2;ratioP2;P2;SDS_P1;SDS_P2;PMS_P1;PMS_P2;Temp;Humidity;BMP_temperature;BMP_pressure;BME280_temperature;BME280_humidity;BME280_pressure;Samples;Min_cycle;Max_cycle;Signal;HPM_P1;HPM_P2
2023/02/04 00:00:33;;;;;;;;;;;;;;;-144.99;76.63;52533.69;5073803;28;20535;-74
2023/02/04 00:02:59;;;;;;;;;;;;;;;-144.99;77.19;52562.25;5060695;28;19924;-76
2023/02/04 00:05:26;;;;;;;;;;;;;;;-144.99;77.36;52570.38;5057056;28;20042;-76
2023/02/04 00:07:54;;;;;;;;;;;;;;;-144.99;77.57;52523.50;5060392;28;20036;-73
2023/02/04 00:10:20;;;;;;;;;;;;;;;-144.99;77.60;52574.47;5065815;28;19978;-76
2023/02/04 00:12:47;;;;;;;;;;;;;;;-144.99;78.05;52552.03;5053375;28;20763;-75
2023/02/04 00:15:13;;;;;;;;;;;;;;;-144.99;78.08;52570.38;5065849;28;20402;-76
2023/02/04 00:17:40;;;;;;;;;;;;;;;-144.99;78.29;52564.28;5064789;28;20335;-75
2023/02/04 00:20:06;;;;;;;;;;;;;;;-144.99;78.26;52550.00;5060874;28;20490;-73
2023/02/04 00:22:33;;;;;;;;;;;;;;;-144.99;78.22;52592.81;5066431;28;20479;-76
2023/02/04 00:25:01;;;;;;;;;;;;;;;-144.99;78.18;52566.31;5061336;28;20031;-77
2023/02/04 00:27:27;;;;;;;;;;;;;;;-144.99;78.24;52586.69;5062973;28;19978;-75
2023/02/04 00:29:53;;;;;;;;;;;;;;;-144.99;78.43;52566.31;5063669;28;20007;-75
2023/02/04 00:32:20;;;;;;;;;;;;;;;-144.99;77.86;52525.56;5066732;28;20332;-74
2023/02/04 00:34:46;;;;;;;;;;;;;;;-144.99;77.50;52537.78;5065649;28;20370;-76
2023/02/04 00:37:13;;;;;;;;;;;;;;;-144.99;77.14;52562.25;5064143;28;20015;-76
2023/02/04 00:39:39;;;;;;;;;;;;;;;-144.99;77.17;52541.84;5092589;28;19916;-78
2023/02/04 00:42:07;;;;;;;;;;;;;;;-144.99;77.13;52586.69;5077669;28;19982;-74
2023/02/04 00:44:35;;;;;;;;;;;;;;;-144.99;77.30;52566.31;5065934;28;20249;-75
2023/02/04 00:47:01;;;;;;;;;;;;;;;-144.99;77.21;52586.69;5058795;28;20349;-76
2023/02/04 00:49:28;;;;;;;;;;;;;;;-144.99;77.34;52541.84;5066639;28;19963;-76
2023/02/04 00:51:54;;;;;;;;;;;;;;;-144.99;76.94;52529.63;5062027;28;20025;-77
2023/02/04 00:54:21;;;;;;;;;;;;;;;-144.99;76.43;52588.75;5065597;28;19983;-76
2023/02/04 00:56:47;;;;;;;;;;;;;;;-144.99;76.33;52558.16;5067206;28;19967;-73
2023/02/04 00:59:15;;;;;;;;;;;;;;;-144.99;76.33;52578.53;5065158;28;20011;-75
2023/02/04 01:01:42;;;;;;;;;;;;;;;-144.99;76.40;52562.25;5061435;28;19933;-77
2023/02/04 01:04:08;;;;;;;;;;;;;;;-144.99;76.37;52545.94;5057921;28;19936;-74
2023/02/04 01:06:35;;;;;;;;;;;;;;;-144.99;76.73;52543.91;5061175;28;20622;-75
2023/02/04 01:09:01;;;;;;;;;;;;;;;-144.99;76.79;52554.09;5062694;28;20003;-73
2023/02/04 01:11:28;;;;;;;;;;;;;;;-144.99;76.82;52521.47;5062055;28;20294;-73
2023/02/04 01:13:54;;;;;;;;;;;;;;;-144.99;77.19;52541.84;5063466;28;20013;-74
2023/02/04 01:16:22;;;;;;;;;;;;;;;-144.99;77.40;52600.97;5063195;28;19968;-72
2023/02/04 01:18:48;;;;;;;;;;;;;;;-144.99;77.65;52537.78;5070598;28;20028;-77
2023/02/04 01:21:15;;;;;;;;;;;;;;;-144.99;77.37;52574.47;5088387;28;19924;-76
2023/02/04 01:23:41;;;;;;;;;;;;;;;-144.99;77.44;52568.34;5074035;28;19956;-76
2023/02/04 01:26:08;;;;;;;;;;;;;;;-144.99;77.48;52505.16;5061839;28;19978;-72
2023/02/04 01:28:34;;;;;;;;;;;;;;;-144.99;77.81;52552.03;5060490;28;19928;-73
2023/02/04 01:31:01;;;;;;;;;;;;;;;-144.99;77.62;52568.34;5065363;28;19971;-75
2023/02/04 01:33:29;;;;;;;;;;;;;;;-144.99;77.65;52545.94;5058922;28;19989;-76
2023/02/04 01:35:55;;;;;;;;;;;;;;;-144.99;77.90;52550.00;5065907;28;19963;-76
2023/02/04 01:38:21;;;;;;;;;;;;;;;-144.99;77.90;52541.84;5062619;28;20029;-76
2023/02/04 01:40:48;;;;;;;;;;;;;;;-144.99;77.92;52582.63;5059053;28;19975;-75
2023/02/04 01:43:16;;;;;;;;;;;;;;;-144.99;78.45;52570.38;5065338;28;19967;-75
2023/02/04 01:45:43;;;;;;;;;;;;;;;-144.99;78.46;52525.56;5058471;28;19948;-76
2023/02/04 01:48:11;;;;;;;;;;;;;;;-144.99;78.57;52578.53;5046426;28;20016;-75
2023/02/04 01:50:39;;;;;;;;;;;;;;;-144.99;78.42;52537.78;5052186;28;20008;-76
2023/02/04 01:53:05;;;;;;;;;;;;;;;-144.99;78.44;52554.09;5053654;28;20028;-75
2023/02/04 01:55:32;;;;;;;;;;;;;;;-144.99;78.73;52533.69;5045134;28;20016;-74
2023/02/04 01:57:59;;;;;;;;;;;;;;;-144.99;78.82;52574.47;5059966;28;19979;-74
2023/02/04 02:00:26;;;;;;;;;;;;;;;-144.99;78.92;52550.00;5061127;28;20003;-76
2023/02/04 02:02:53;;;;;;;;;;;;;;;-144.99;78.89;52568.34;5061180;28;20007;-74
2023/02/04 02:05:21;;;;;;;;;;;;;;;-144.99;79.00;52541.84;5065757;28;19993;-76
2023/02/04 02:07:50;;;;;;;;;;;;;;;-144.99;79.12;52554.09;5065062;28;19932;-76
2023/02/04 02:10:17;;;;;;;;;;;;;;;-144.99;79.37;52541.84;5062376;28;20206;-77
2023/02/04 02:12:44;;;;;;;;;;;;;;;-144.99;79.31;52525.56;5064126;28;20026;-74
2023/02/04 02:15:11;;;;;;;;;;;;;;;-144.99;79.51;52537.78;5065350;28;20258;-76
2023/02/04 02:17:38;;;;;;;;;;;;;;;-144.99;79.64;52603.00;5067298;28;19989;-77
2023/02/04 02:20:06;;;;;;;;;;;;;;;-144.99;79.58;52541.84;5082347;28;19912;-77
2023/02/04 02:22:35;;;;;;;;;;;;;;;-144.99;79.57;52570.38;5085523;28;19973;-74
2023/02/04 02:25:07;;;;;;;;;;;;;;;-144.99;79.61;52578.53;5063344;28;19998;-76
2023/02/04 02:27:34;;;;;;;;;;;;;;;-144.99;79.74;52550.00;5064064;28;20017;-76
2023/02/04 02:30:00;;;;;;;;;;;;;;;-144.99;79.46;52539.81;5061987;28;20004;-76
2023/02/04 02:32:27;;;;;;;;;;;;;;;-144.99;79.68;52494.97;5064678;28;20429;-75
2023/02/04 02:34:53;;;;;;;;;;;;;;;-144.99;79.87;52582.63;5065445;28;19935;-76
2023/02/04 02:37:20;;;;;;;;;;;;;;;-144.99;80.43;52529.63;5061857;28;20400;-75
2023/02/04 02:39:46;;;;;;;;;;;;;;;-144.99;80.53;52550.00;5066260;28;19928;-75
2023/02/04 02:42:16;;;;;;;;;;;;;;;-144.99;80.80;52586.69;5078300;28;19924;-74
2023/02/04 02:44:42;;;;;;;;;;;;;;;-144.99;81.14;52545.94;5080347;28;19928;-75
2023/02/04 02:47:12;;;;;;;;;;;;;;;-144.99;81.10;52537.78;5066037;28;19959;-74
2023/02/04 02:49:39;;;;;;;;;;;;;;;-144.99;81.28;52558.16;5065397;28;19978;-76
2023/02/04 02:52:06;;;;;;;;;;;;;;;-144.99;81.74;52554.09;5065501;28;19939;-73
2023/02/04 02:54:32;;;;;;;;;;;;;;;-144.99;81.38;52586.69;5065644;28;19960;-75
2023/02/04 02:56:59;;;;;;;;;;;;;;;-144.99;81.63;52545.94;5078644;28;20058;-74
2023/02/04 02:59:27;;;;;;;;;;;;;;;-144.99;81.93;52564.28;5082484;28;19935;-77
2023/02/04 03:01:56;;;;;;;;;;;;;;;-144.99;82.58;52586.69;5083085;28;19916;-76
2023/02/04 03:04:24;;;;;;;;;;;;;;;-144.99;82.53;52545.94;5085999;28;19924;-77
2023/02/04 03:06:51;;;;;;;;;;;;;;;-144.99;82.68;52513.31;5082700;28;19920;-77
2023/02/04 03:09:18;;;;;;;;;;;;;;;-144.99;82.55;52590.78;5087843;28;19913;-74
2023/02/04 03:11:44;;;;;;;;;;;;;;;-144.99;82.51;52580.59;5062222;28;19971;-76
2023/02/04 03:14:11;;;;;;;;;;;;;;;-144.99;82.94;52541.84;5062674;28;19925;-73
2023/02/04 03:16:39;;;;;;;;;;;;;;;-144.99;82.58;52554.09;5066513;28;19974;-76
2023/02/04 03:19:06;;;;;;;;;;;;;;;-144.99;82.14;52586.69;5065961;28;19966;-75
2023/02/04 03:21:33;;;;;;;;;;;;;;;-144.99;82.07;52558.16;5067021;28;19964;-77
2023/02/04 03:24:00;;;;;;;;;;;;;;;-144.99;81.98;52574.47;5073844;28;19928;-74
2023/02/04 03:29:07;;;;;;;;;;;;;;;-144.99;83.29;52550.00;5043698;28;20308;-75
2023/02/04 03:31:34;;;;;;;;;;;;;;;-144.99;83.79;52580.59;5049566;28;19947;-75
2023/02/04 03:34:01;;;;;;;;;;;;;;;-144.99;83.55;52607.09;5045128;28;19978;-76
2023/02/04 03:36:28;;;;;;;;;;;;;;;-144.99;83.57;52541.84;5036561;28;20000;-74
2023/02/04 03:38:55;;;;;;;;;;;;;;;-144.99;83.26;52560.19;5044839;28;19925;-78
2023/02/04 03:41:21;;;;;;;;;;;;;;;-144.99;84.47;52545.94;5045262;28;20006;-74
2023/02/04 03:43:48;;;;;;;;;;;;;;;-144.99;83.61;52558.16;5047752;28;19978;-76
2023/02/04 03:46:14;;;;;;;;;;;;;;;-144.99;83.26;52560.19;5038038;28;19980;-75
2023/02/04 03:48:41;;;;;;;;;;;;;;;-144.99;83.67;52521.47;5040763;28;19982;-76
2023/02/04 03:51:08;;;;;;;;;;;;;;;-144.99;83.69;52566.31;5041567;28;20470;-76
2023/02/04 03:53:35;;;;;;;;;;;;;;;-144.99;84.03;52570.38;5043462;28;19925;-75
2023/02/04 03:56:01;;;;;;;;;;;;;;;-144.99;83.77;52603.00;5035804;28;19995;-75
2023/02/04 03:58:28;;;;;;;;;;;;;;;-144.99;83.89;52545.94;5040961;28;19925;-75
2023/02/04 04:00:54;;;;;;;;;;;;;;;-144.99;83.87;52582.63;5047618;28;19978;-76
2023/02/04 04:03:21;;;;;;;;;;;;;;;-144.99;84.27;52558.16;5039622;28;20583;-75
2023/02/04 04:05:47;;;;;;;;;;;;;;;-144.99;85.10;52554.09;5040152;28;20402;-75
2023/02/04 04:08:15;;;;;;;;;;;;;;;-144.99;84.60;52513.31;5049344;28;19932;-76
2023/02/04 04:10:42;;;;;;;;;;;;;;;-144.99;84.83;52570.38;5046554;28;20021;-75
2023/02/04 04:13:08;;;;;;;;;;;;;;;-144.99;85.56;52566.31;5048158;28;20188;-74
2023/02/04 04:15:34;;;;;;;;;;;;;;;-144.99;86.35;52623.38;5041475;28;19929;-74
2023/02/04 04:18:03;;;;;;;;;;;;;;;-144.99;85.89;52594.84;5053963;28;19968;-77
2023/02/04 04:20:29;;;;;;;;;;;;;;;-144.99;86.10;52611.16;5064582;28;19928;-76
2023/02/04 04:22:56;;;;;;;;;;;;;;;-144.99;86.50;52578.53;5054007;28;19971;-75
2023/02/04 04:25:24;;;;;;;;;;;;;;;-144.99;85.79;52545.94;5035526;28;19924;-76
2023/02/04 04:27:50;;;;;;;;;;;;;;;-144.99;84.79;52533.69;5043998;28;19972;-74
2023/02/04 04:30:17;;;;;;;;;;;;;;;-144.99;84.92;52552.03;5035488;28;19925;-74
2023/02/04 04:32:43;;;;;;;;;;;;;;;-144.99;85.00;52529.63;5045806;28;20015;-74
2023/02/04 04:35:10;;;;;;;;;;;;;;;-144.99;84.69;52586.69;5040240;28;20020;-75
2023/02/04 04:37:36;;;;;;;;;;;;;;;-144.99;84.16;52576.50;5041233;28;19940;-75
2023/02/04 04:40:03;;;;;;;;;;;;;;;-144.99;84.18;52576.50;5037830;28;20008;-74
2023/02/04 04:42:31;;;;;;;;;;;;;;;-144.99;84.63;52564.28;5044517;28;20352;-74
2023/02/04 04:44:57;;;;;;;;;;;;;;;-144.99;85.91;52586.69;5044483;28;19928;-75
2023/02/04 04:47:24;;;;;;;;;;;;;;;-144.99;86.33;52562.25;5046714;28;19967;-76
2023/02/04 04:49:50;;;;;;;;;;;;;;;-144.99;86.25;52578.53;5047006;28;19925;-74
2023/02/04 04:52:16;;;;;;;;;;;;;;;-144.99;85.92;52558.16;5046578;28;20345;-74
2023/02/04 04:54:43;;;;;;;;;;;;;;;-144.99;86.50;52554.09;5045696;28;20304;-75
2023/02/04 04:57:09;;;;;;;;;;;;;;;-144.99;86.20;52554.09;5050329;28;19929;-74
2023/02/04 04:59:37;;;;;;;;;;;;;;;-144.99;85.90;52566.31;5056990;28;19929;-76
2023/02/04 05:02:04;;;;;;;;;;;;;;;-144.99;84.94;52590.78;5055717;28;19980;-75
2023/02/04 05:04:30;;;;;;;;;;;;;;;-144.99;84.70;52541.84;5043987;28;19975;-77
2023/02/04 05:06:57;;;;;;;;;;;;;;;-144.99;85.59;52554.09;5049328;28;19974;-74
2023/02/04 05:09:23;;;;;;;;;;;;;;;-144.99;85.36;52539.81;5036110;28;19956;-76
2023/02/04 05:11:49;;;;;;;;;;;;;;;-144.99;83.62;52529.63;5042616;28;19956;-75
2023/02/04 05:14:16;;;;;;;;;;;;;;;-144.99;82.98;52494.97;5047978;28;19978;-75
2023/02/04 05:16:44;;;;;;;;;;;;;;;-144.99;82.21;52505.16;5050104;28;19979;-75
2023/02/04 05:19:10;;;;;;;;;;;;;;;-144.99;82.56;52582.63;5042587;28;20396;-74
2023/02/04 05:21:37;;;;;;;;;;;;;;;-144.99;83.72;52578.53;5041574;28;19933;-73
2023/02/04 05:24:05;;;;;;;;;;;;;;;-144.99;84.16;52562.25;5048025;28;19975;-77
2023/02/04 05:26:31;;;;;;;;;;;;;;;-144.99;84.92;52550.00;5045519;28;20377;-76
2023/02/04 05:28:59;;;;;;;;;;;;;;;-144.99;83.52;52545.94;5040269;28;19979;-75
2023/02/04 05:31:25;;;;;;;;;;;;;;;-144.99;83.17;52541.84;5056797;28;19935;-80
2023/02/04 05:33:53;;;;;;;;;;;;;;;-144.99;83.33;52545.94;5065284;28;19936;-75
2023/02/04 05:36:19;;;;;;;;;;;;;;;-144.99;83.20;52578.53;5051913;28;20320;-75
2023/02/04 05:38:46;;;;;;;;;;;;;;;-144.99;83.07;52572.44;5057325;28;19925;-75
2023/02/04 05:41:12;;;;;;;;;;;;;;;-144.99;84.11;52523.50;5054306;28;19932;-77
2023/02/04 05:43:39;;;;;;;;;;;;;;;-144.99;84.89;52566.31;5053034;28;19951;-75
2023/02/04 05:46:06;;;;;;;;;;;;;;;-144.99;84.96;52550.00;5041796;28;19987;-74
2023/02/04 05:48:32;;;;;;;;;;;;;;;-144.99;84.58;52570.38;5048414;28;19944;-74
2023/02/04 05:51:00;;;;;;;;;;;;;;;-144.99;84.61;52588.75;5044848;28;20384;-74
2023/02/04 05:53:26;;;;;;;;;;;;;;;-144.99;84.63;52574.47;5044163;28;20388;-74
2023/02/04 05:55:53;;;;;;;;;;;;;;;-144.99;84.63;52545.94;5038258;28;19991;-74
2023/02/04 05:58:19;;;;;;;;;;;;;;;-144.99;84.84;52513.31;5047039;28;19964;-74
2023/02/04 06:00:46;;;;;;;;;;;;;;;-144.99;85.16;52525.56;5041228;28;20343;-74
2023/02/04 06:03:13;;;;;;;;;;;;;;;-144.99;84.61;52558.16;5039323;28;19991;-75
2023/02/04 06:05:39;;;;;;;;;;;;;;;-144.99;84.12;52556.13;5048582;28;20024;-75
2023/02/04 06:08:07;;;;;;;;;;;;;;;-144.99;84.21;52574.47;5048389;28;19929;-74
2023/02/04 06:10:34;;;;;;;;;;;;;;;-144.99;83.96;52572.44;5041201;28;19963;-75
2023/02/04 06:13:00;;;;;;;;;;;;;;;-144.99;84.08;52537.78;5048005;28;19987;-76
2023/02/04 06:15:27;;;;;;;;;;;;;;;-144.99;83.87;52566.31;5045091;28;19968;-75
2023/02/04 06:17:53;;;;;;;;;;;;;;;-144.99;84.31;52562.25;5050915;28;19924;-74
2023/02/04 06:20:19;;;;;;;;;;;;;;;-144.99;84.50;52562.25;5055630;28;20171;-74
2023/02/04 06:22:46;;;;;;;;;;;;;;;-144.99;84.07;52574.47;5037114;28;19964;-74
2023/02/04 06:25:14;;;;;;;;;;;;;;;-144.99;84.58;52566.31;5032002;28;19933;-73
2023/02/04 06:27:41;;;;;;;;;;;;;;;-144.99;84.68;52582.63;5039023;28;19986;-74
2023/02/04 06:30:08;;;;;;;;;;;;;;;-144.99;84.64;52592.81;5032626;28;20397;-74
2023/02/04 06:32:34;;;;;;;;;;;;;;;-144.99;84.51;52562.25;5046602;28;19986;-74
2023/02/04 06:35:01;;;;;;;;;;;;;;;-144.99;84.66;52568.34;5036090;28;20029;-74
2023/02/04 06:37:27;;;;;;;;;;;;;;;-144.99;84.76;52590.78;5043709;28;20190;-73
2023/02/04 06:39:56;;;;;;;;;;;;;;;-144.99;84.79;52533.69;5047570;28;19971;-73
2023/02/04 06:42:24;;;;;;;;;;;;;;;-144.99;85.05;52543.91;5043795;28;19933;-74
2023/02/04 06:44:51;;;;;;;;;;;;;;;-144.99;85.33;52537.78;5034984;28;20289;-75
2023/02/04 06:47:17;;;;;;;;;;;;;;;-144.99;84.73;52529.63;5038294;28;19931;-76
2023/02/04 06:49:44;;;;;;;;;;;;;;;-144.99;84.66;52566.31;5048279;28;19960;-74
2023/02/04 06:52:10;;;;;;;;;;;;;;;-144.99;84.33;52592.81;5046787;28;20440;-74
2023/02/04 06:54:37;;;;;;;;;;;;;;;-144.99;84.50;52560.19;5048834;28;19964;-74
2023/02/04 06:57:06;;;;;;;;;;;;;;;-144.99;84.44;52572.44;5055207;28;19964;-76
2023/02/04 06:59:34;;;;;;;;;;;;;;;-144.99;84.79;52550.00;5063978;28;20059;-75
2023/02/04 07:02:01;;;;;;;;;;;;;;;-144.99;85.02;52533.69;5040094;28;20016;-74
2023/02/04 07:04:27;;;;;;;;;;;;;;;-144.99;85.10;52527.59;5039919;28;19960;-75
2023/02/04 07:06:54;;;;;;;;;;;;;;;-144.99;85.31;52578.53;5044366;28;20011;-75
2023/02/04 07:09:20;;;;;;;;;;;;;;;-144.99;85.54;52550.00;5042314;28;19972;-75
2023/02/04 07:11:47;;;;;;;;;;;;;;;-144.99;85.49;52533.69;5047122;28;20371;-75
2023/02/04 07:14:13;;;;;;;;;;;;;;;-144.99;85.53;52547.97;5041489;28;19929;-75
2023/02/04 07:16:41;;;;;;;;;;;;;;;-144.99;85.76;52598.94;5042972;28;19987;-73
2023/02/04 07:19:08;;;;;;;;;;;;;;;-144.99;85.73;52566.31;5039156;28;19972;-75
2023/02/04 07:21:34;;;;;;;;;;;;;;;-144.99;85.74;52580.59;5040490;28;20003;-73
2023/02/04 07:24:00;;;;;;;;;;;;;;;-144.99;85.48;52525.56;5039367;28;20011;-76
2023/02/04 07:26:27;;;;;;;;;;;;;;;-144.99;85.46;52570.38;5040767;28;19968;-74
2023/02/04 07:28:53;;;;;;;;;;;;;;;-144.99;85.68;52586.69;5042715;28;20012;-74
2023/02/04 07:31:20;;;;;;;;;;;;;;;-144.99;85.48;52570.38;5040780;28;20417;-75
2023/02/04 07:33:48;;;;;;;;;;;;;;;-144.99;85.35;52562.25;5048168;28;19956;-74
2023/02/04 07:36:14;;;;;;;;;;;;;;;-144.99;85.06;52566.31;5047746;28;19929;-76
2023/02/04 07:38:40;;;;;;;;;;;;;;;-144.99;84.68;52541.84;5072883;28;19924;-76
2023/02/04 07:41:07;;;;;;;;;;;;;;;-144.99;84.23;52570.38;5061770;28;19936;-74
2023/02/04 07:43:33;;;;;;;;;;;;;;;-144.99;84.29;52521.47;5042055;28;20362;-74
2023/02/04 07:46:00;;;;;;;;;;;;;;;-144.99;83.35;52529.63;5042368;28;19964;-73
2023/02/04 07:48:26;;;;;;;;;;;;;;;-144.99;83.32;52513.31;5050519;28;19983;-74
2023/02/04 07:50:54;;;;;;;;;;;;;;;-144.99;83.42;52509.25;5041309;28;19963;-74
2023/02/04 07:53:21;;;;;;;;;;;;;;;-144.99;83.10;52562.25;5042745;28;20910;-74
2023/02/04 07:55:47;;;;;;;;;;;;;;;-144.99;82.90;52547.97;5051082;28;19952;-75
2023/02/04 07:58:14;;;;;;;;;;;;;;;-144.99;83.07;52529.63;5041990;28;19925;-75
2023/02/04 08:00:40;;;;;;;;;;;;;;;-144.99;83.00;52541.84;5045413;28;19968;-75
2023/02/04 08:03:06;;;;;;;;;;;;;;;-144.99;83.01;52541.84;5040871;28;19979;-75
2023/02/04 08:05:33;;;;;;;;;;;;;;;-144.99;82.53;52513.31;5038610;28;20024;-74
2023/02/04 08:08:01;;;;;;;;;;;;;;;-144.99;82.30;52541.84;5047520;28;19975;-73
2023/02/04 08:10:28;;;;;;;;;;;;;;;-144.99;81.73;52517.41;5042499;28;20407;-74
2023/02/04 08:12:54;;;;;;;;;;;;;;;-144.99;81.74;52533.69;5043070;28;19925;-74
2023/02/04 08:15:21;;;;;;;;;;;;;;;-144.99;81.03;52554.09;5042502;28;19976;-74
2023/02/04 08:17:47;;;;;;;;;;;;;;;-144.99;80.31;52497.00;5069982;28;19929;-74
2023/02/04 08:20:15;;;;;;;;;;;;;;;-144.99;79.46;52503.13;5061380;28;19929;-74
2023/02/04 08:22:41;;;;;;;;;;;;;;;-144.99;78.89;52480.72;5056234;28;20032;-74
2023/02/04 08:25:11;;;;;;;;;;;;;;;-144.99;77.97;52521.47;5058526;28;19952;-74
2023/02/04 08:27:37;;;;;;;;;;;;;;;-144.99;77.30;52507.19;5059510;28;20108;-74
2023/02/04 08:30:04;;;;;;;;;;;;;;;-144.99;76.80;52472.56;5046977;28;19929;-74
2023/02/04 08:32:31;;;;;;;;;;;;;;;-144.99;74.54;52503.13;5068049;28;19924;-72
2023/02/04 08:34:57;;;;;;;;;;;;;;;-144.99;74.70;52513.31;5057248;28;19925;-74
2023/02/04 08:37:24;;;;;;;;;;;;;;;-144.99;73.93;52521.47;5061509;28;19951;-74
2023/02/04 08:39:50;;;;;;;;;;;;;;;-144.99;74.67;52517.41;5055563;28;19940;-73
2023/02/04 08:42:19;;;;;;;;;;;;;;;-144.99;74.83;52515.34;5060704;28;19928;-74
2023/02/04 08:44:45;;;;;;;;;;;;;;;-144.99;74.39;52480.72;5054489;28;19952;-74
2023/02/04 08:47:12;;;;;;;;;;;;;;;-144.99;72.46;52490.91;5056599;28;19925;-72
2023/02/04 08:49:38;;;;;;;;;;;;;;;-144.99;70.65;52444.03;5057527;28;19961;-73
2023/02/04 08:52:06;;;;;;;;;;;;;;;-144.99;69.88;52464.41;5064583;28;19929;-73
2023/02/04 08:54:33;;;;;;;;;;;;;;;-144.99;69.46;52501.09;5060592;28;19928;-72
2023/02/04 08:57:00;;;;;;;;;;;;;;;-144.99;68.38;52492.94;5062433;28;19963;-74
2023/02/04 08:59:28;;;;;;;;;;;;;;;-144.99;67.00;52501.09;5066609;28;20173;-74
2023/02/04 09:01:54;;;;;;;;;;;;;;;-144.99;66.22;52488.84;5058602;28;20007;-75
2023/02/04 09:04:21;;;;;;;;;;;;;;;-144.99;65.55;52480.72;5053891;28;21433;-73
2023/02/04 09:06:48;;;;;;;;;;;;;;;-144.99;64.78;52427.72;5060967;28;19925;-73
2023/02/04 09:09:15;;;;;;;;;;;;;;;-144.99;63.43;52488.84;5041599;28;20011;-73
2023/02/04 09:11:43;;;;;;;;;;;;;;;-144.99;62.48;52476.63;5044964;28;20479;-73
2023/02/04 09:14:10;;;;;;;;;;;;;;;-144.99;61.99;52476.63;5032422;28;20011;-74
2023/02/04 09:16:38;;;;;;;;;;;;;;;-144.99;61.59;52448.09;5040901;28;19968;-74
2023/02/04 09:19:04;;;;;;;;;;;;;;;-144.99;59.96;52456.25;5036370;28;20195;-74
2023/02/04 09:21:31;;;;;;;;;;;;;;;-144.99;59.44;52476.63;5042622;28;19968;-74
2023/02/04 09:23:57;;;;;;;;;;;;;;;-144.99;59.02;52484.78;5064588;28;19940;-73
2023/02/04 09:26:24;;;;;;;;;;;;;;;-144.99;58.15;52448.09;5062263;28;19975;-73
2023/02/04 09:28:50;;;;;;;;;;;;;;;-144.99;57.01;52439.94;5076215;22;20357;-77
2023/02/04 09:31:17;;;;;;;;;;;;;;;-144.99;56.74;52448.09;5044163;28;19964;-75
2023/02/04 09:33:45;;;;;;;;;;;;;;;-144.99;57.06;52439.94;5057337;28;19929;-77
2023/02/04 09:36:12;;;;;;;;;;;;;;;-144.99;56.73;52431.78;5051466;28;20426;-79
2023/02/04 09:38:38;;;;;;;;;;;;;;;-144.99;56.05;52452.16;5060316;28;19994;-77
2023/02/04 09:41:06;;;;;;;;;;;;;;;-144.99;54.50;52415.47;5058349;28;20313;-76
2023/02/04 09:43:35;;;;;;;;;;;;;;;-144.99;53.22;52444.03;5053008;28;20152;-77
2023/02/04 09:46:02;;;;;;;;;;;;;;;-144.99;52.16;52425.66;5048935;28;19986;-76
2023/02/04 09:48:28;;;;;;;;;;;;;;;-144.99;51.00;52427.72;5066887;28;19989;-76
2023/02/04 09:51:03;;;;;;;;;;;;;;;-144.99;50.33;52403.25;5061191;28;20015;-76
2023/02/04 09:53:30;;;;;;;;;;;;;;;-144.99;50.04;52395.09;5060027;28;20037;-79
2023/02/04 09:55:56;;;;;;;;;;;;;;;-144.99;49.27;52342.09;5066271;28;19928;-83
2023/02/04 09:58:25;;;;;;;;;;;;;;;-144.99;47.97;52350.25;5065991;28;19979;-77
2023/02/04 10:00:56;;;;;;;;;;;;;;;-144.99;47.16;52368.59;5054703;28;20067;-78
2023/02/04 10:03:23;;;;;;;;;;;;;;;-144.99;46.04;52338.03;5059658;28;20005;-78
2023/02/04 10:05:50;;;;;;;;;;;;;;;-144.99;45.55;52325.81;5065061;28;19975;-76
2023/02/04 10:08:19;;;;;;;;;;;;;;;-144.99;44.11;52293.19;5057061;28;19960;-75
2023/02/04 10:10:47;;;;;;;;;;;;;;;-144.99;41.79;52260.56;5060142;28;20330;-76
2023/02/04 10:13:16;;;;;;;;;;;;;;;-144.99;40.87;52260.56;5063157;28;20468;-77
2023/02/04 10:15:43;;;;;;;;;;;;;;;-144.99;39.72;52285.03;5053035;28;19975;-81
2023/02/04 10:18:13;;;;;;;;;;;;;;;-144.99;39.08;52268.72;5043947;28;20454;-79
2023/02/04 10:20:39;;;;;;;;;;;;;;;-144.99;38.05;52289.13;5041313;28;19983;-78
2023/02/04 10:23:10;;;;;;;;;;;;;;;-144.99;37.75;52336.00;5046578;28;20018;-81
2023/02/04 10:25:38;;;;;;;;;;;;;;;-144.99;37.88;52317.66;5046640;28;19929;-78
2023/02/04 10:28:05;;;;;;;;;;;;;;;-144.99;37.62;52313.56;5050068;28;20006;-77
2023/02/04 10:30:38;;;;;;;;;;;;;;;-144.99;37.58;52303.38;5051087;28;19970;-79
2023/02/04 10:33:12;;;;;;;;;;;;;;;-144.99;37.69;52289.13;5040610;28;19967;-79
2023/02/04 10:35:44;;;;;;;;;;;;;;;-144.99;37.83;52336.00;5041340;28;19967;-81
2023/02/04 10:38:10;;;;;;;;;;;;;;;-144.99;38.62;52362.50;5051443;28;19979;-83
2023/02/04 10:40:38;;;;;;;;;;;;;;;-144.99;39.26;52370.63;5054910;28;20341;-78
2023/02/04 10:43:09;;;;;;;;;;;;;;;-144.99;39.26;52399.19;5060063;28;19975;-79
2023/02/04 10:45:35;;;;;;;;;;;;;;;-144.99;40.10;52423.63;5055685;28;20296;-79
2023/02/04 10:48:02;;;;;;;;;;;;;;;-144.99;40.34;52417.53;5044549;28;19929;-81
2023/02/04 10:50:29;;;;;;;;;;;;;;;-144.99;40.99;52441.97;5048992;28;19929;-80
2023/02/04 10:54:28;;;;;;;;;;;;;;;-144.99;41.17;52456.25;5059071;28;20335;-84
2023/02/04 10:55:45;;;;;;;;;;;;;;;-144.99;42.06;52484.78;5060021;28;19939;-80
2023/02/04 10:58:14;;;;;;;;;;;;;;;-144.99;42.62;52439.94;5063216;28;19972;-81
2023/02/04 11:00:41;;;;;;;;;;;;;;;-144.99;42.64;52480.72;5056507;28;20321;-78
2023/02/04 11:03:10;;;;;;;;;;;;;;;-144.99;42.93;52480.72;5052582;28;20024;-78
2023/02/04 11:05:37;;;;;;;;;;;;;;;-144.99;42.81;52476.63;5054957;28;20274;-79
2023/02/04 11:08:18;;;;;;;;;;;;;;;-144.99;43.06;52482.75;5060170;28;19979;-80
2023/02/04 11:10:46;;;;;;;;;;;;;;;-144.99;43.12;52435.88;5060448;28;20036;-81
2023/02/04 11:13:20;;;;;;;;;;;;;;;-144.99;43.11;52456.25;5074205;28;20012;-86
2023/02/04 11:15:48;;;;;;;;;;;;;;;-144.99;43.59;52488.84;5065601;28;19929;-80
2023/02/04 11:18:26;;;;;;;;;;;;;;;-144.99;43.70;52468.47;5051724;28;19936;-78
2023/02/04 11:20:53;;;;;;;;;;;;;;;-144.99;43.63;52458.28;5042967;28;19925;-78
2023/02/04 11:23:35;;;;;;;;;;;;;;;-144.99;43.80;52468.47;5050335;28;19960;-79
2023/02/04 11:26:03;;;;;;;;;;;;;;;-144.99;44.27;52480.72;5043781;28;19929;-79
2023/02/04 11:28:39;;;;;;;;;;;;;;;-144.99;44.82;52460.31;5051901;28;19971;-80
2023/02/04 11:31:13;;;;;;;;;;;;;;;-144.99;45.42;52515.34;5050360;28;20056;-78
2023/02/04 11:33:41;;;;;;;;;;;;;;;-144.99;45.94;52468.47;5050229;28;20016;-78
2023/02/04 11:36:10;;;;;;;;;;;;;;;-144.99;46.34;52509.25;5046667;28;20484;-78
2023/02/04 11:38:38;;;;;;;;;;;;;;;-144.99;46.17;52505.16;5050823;28;19929;-78
2023/02/04 11:41:06;;;;;;;;;;;;;;;-144.99;46.07;52529.63;5053776;28;20241;-78
2023/02/04 11:43:33;;;;;;;;;;;;;;;-144.99;46.58;52501.09;5055407;28;19990;-77
2023/02/04 11:46:04;;;;;;;;;;;;;;;-144.99;46.12;52513.31;5045054;28;20023;-83
2023/02/04 11:48:31;;;;;;;;;;;;;;;-144.99;46.54;52505.16;5050458;28;19959;-82
2023/02/04 11:50:59;;;;;;;;;;;;;;;-144.99;46.53;52509.25;5071911;28;19951;-85
2023/02/04 11:53:29;;;;;;;;;;;;;;;-144.99;46.17;52476.63;5050925;28;19971;-77
2023/02/04 11:55:55;;;;;;;;;;;;;;;-144.99;46.44;52513.31;5050007;28;19996;-78
2023/02/04 11:58:24;;;;;;;;;;;;;;;-144.99;45.85;52484.78;5051086;28;20036;-80
2023/02/04 12:00:51;;;;;;;;;;;;;;;-144.99;45.94;52350.25;5068135;28;19925;-78
2023/02/04 12:03:23;;;;;;;;;;;;;;;-144.99;44.21;52313.56;5052423;28;20593;-80
2023/02/04 12:05:49;;;;;;;;;;;;;;;-144.99;41.95;52289.13;5049352;28;20024;-77
2023/02/04 12:08:26;;;;;;;;;;;;;;;-144.99;39.89;52244.28;5051863;28;19968;-76
2023/02/04 12:10:59;;;;;;;;;;;;;;;-144.99;38.16;52211.66;5036092;28;19940;-82
2023/02/04 12:13:27;;;;;;;;;;;;;;;-144.99;36.64;52156.63;5036196;28;19935;-78
2023/02/04 12:15:55;;;;;;;;;;;;;;;-144.99;35.20;52136.25;5048096;28;19964;-77
2023/02/04 12:18:22;;;;;;;;;;;;;;;-144.99;34.39;52179.06;5051186;28;20337;-83
2023/02/04 12:20:48;;;;;;;;;;;;;;;-144.99;34.61;52223.88;5057776;28;19974;-79
2023/02/04 12:23:15;;;;;;;;;;;;;;;-144.99;34.28;52287.06;5062859;28;19931;-84
2023/02/04 12:25:41;;;;;;;;;;;;;;;-144.99;34.09;52289.13;5058379;28;20194;-78
2023/02/04 12:28:07;;;;;;;;;;;;;;;-144.99;34.03;52264.66;5047989;28;19957;-81
2023/02/04 12:30:36;;;;;;;;;;;;;;;-144.99;33.84;52195.34;5042062;28;20107;-78